Hartshorn, MO

9:59 PM CST on December 04, 2016 (GMT -0600)
Ozark Community | | Change Station

Elev 1220 ft 37.27 °N, 91.91 °W | Updated 10 minutes ago

Mist
Mist
28.4 °F
Feels Like 28 °F
N
1.7
Wind Variable Wind from South

Today
High -- | Low -- °F
--% Chance of Precip.
Yesterday
High -- | Low -- °F
Precip. -- in
Pressure 30.05 in
Visibility 0.8 miles
Clouds
Windchill 28 °F
Dew Point 27 °F
Humidity 93%
Rainfall 0.22 in
Snow Depth Not available.
7:05 AM 4:48 PM
Waxing Crescent, 28% visible
METAR KUNO 050353Z AUTO 00000KT 3/4SM BR VV002 01/M01 A3003 RMK AO2 SLP175 I1001 T00061006
Pressure 30.05 in
Visibility 0.8 miles
Clouds
Windchill 28 °F
Dew Point 27 °F
Humidity 93%
Rainfall 0.22 in
Snow Depth Not available.
7:05 AM 4:48 PM
Waxing Crescent, 28% visible
METAR KUNO 050353Z AUTO 00000KT 3/4SM BR VV002 01/M01 A3003 RMK AO2 SLP175 I1001 T00061006

10-Day Weather Forecast

Almanac

Astronomy

Dec. 04, 2016 Rise Set
Actual Time
Civil Twilight
Nautical Twilight
Astronomical Twilight
Moon
Length of Visible Light
Length of Day
Tomorrow will be .
, % of the Moon is Illuminated

Today's Extremes

State Highs State Lows

Community

WunderPhotos

Upload Photos

1,955,757 photos uploaded!

WunderBlog® & News

Nearby

Air Quality

  Air Quality AQ Index Pollutant
Not available.

Snow Depth

Station Depth Elevation

Earthquake Activity

City Distance Mag. Time & Date
Minimum magnitude displayed is 2.5.

Coastal Water Temperatures

Place Temperature

Stations

Nearby Weather Stations

Station Location Temp. Windchill Dew Point Humidity Wind Precip. Elev Updated Type
                   

Watches & Warnings

There are currently no watches in effect.